createdAt,value
2019-03-29T00:00:53.931Z,49.83
2019-03-29T00:03:25.212Z,42.27
2019-03-29T00:05:56.430Z,38.83
2019-03-29T00:08:27.778Z,48.50
2019-03-29T00:10:58.949Z,49.00
2019-03-29T00:13:30.288Z,36.83
2019-03-29T00:16:01.624Z,30.87
2019-03-29T00:18:33.225Z,27.93
2019-03-29T00:21:04.478Z,22.10
2019-03-29T00:23:35.666Z,24.23
2019-03-29T00:26:07.009Z,26.70
2019-03-29T00:28:38.339Z,23.27
2019-03-29T00:31:09.710Z,22.60
2019-03-29T00:33:40.894Z,24.10
2019-03-29T00:36:12.203Z,19.77
2019-03-29T00:38:43.478Z,24.90
2019-03-29T00:41:14.669Z,34.40
2019-03-29T00:43:45.910Z,32.10
2019-03-29T00:46:17.111Z,31.50
2019-03-29T00:48:48.384Z,37.13
2019-03-29T00:51:19.594Z,33.10
2019-03-29T00:53:50.944Z,25.57
2019-03-29T00:56:22.110Z,33.03
2019-03-29T00:58:53.230Z,35.23
2019-03-29T01:01:24.367Z,29.00
2019-03-29T01:03:55.799Z,45.93
2019-03-29T01:06:26.954Z,47.07
2019-03-29T01:08:58.240Z,52.37
2019-03-29T01:11:29.434Z,50.20
2019-03-29T01:14:00.580Z,46.90
2019-03-29T01:16:31.756Z,46.37
2019-03-29T01:19:03.901Z,38.00
2019-03-29T01:21:35.344Z,46.67
2019-03-29T01:24:06.607Z,48.50
2019-03-29T01:26:37.719Z,46.67
2019-03-29T01:29:08.841Z,56.47
2019-03-29T01:31:40.242Z,37.53
2019-03-29T01:34:12.280Z,47.80
2019-03-29T01:36:43.554Z,48.63
2019-03-29T01:39:14.727Z,48.23
2019-03-29T01:41:45.920Z,74.90
2019-03-29T01:44:17.210Z,55.83
2019-03-29T01:46:48.448Z,62.07
2019-03-29T01:49:19.684Z,59.83
2019-03-29T01:51:50.800Z,63.00
2019-03-29T01:54:22.042Z,60.13
2019-03-29T01:56:53.155Z,67.70
2019-03-29T01:59:24.257Z,61.53
2019-03-29T02:01:55.491Z,62.47
2019-03-29T02:04:26.639Z,75.23
2019-03-29T02:06:57.824Z,91.57
2019-03-29T02:09:29.031Z,72.53
2019-03-29T02:12:00.220Z,58.40
2019-03-29T02:14:31.307Z,57.77
2019-03-29T02:17:02.585Z,52.10
2019-03-29T02:19:33.750Z,50.87
2019-03-29T02:22:05.040Z,50.37
2019-03-29T02:24:36.193Z,52.30
2019-03-29T02:27:07.940Z,64.17
2019-03-29T02:29:39.094Z,61.03
2019-03-29T02:32:10.296Z,56.53
2019-03-29T02:34:43.639Z,55.93
2019-03-29T02:37:14.468Z,55.50
2019-03-29T02:39:45.653Z,50.17
2019-03-29T02:42:16.875Z,51.90
2019-03-29T02:44:48.095Z,47.73
2019-03-29T02:47:19.434Z,48.03
2019-03-29T02:49:50.652Z,46.47
2019-03-29T02:52:21.829Z,49.80
2019-03-29T02:54:52.984Z,51.80
2019-03-29T02:57:24.259Z,51.37
2019-03-29T02:59:55.395Z,49.30
2019-03-29T03:02:26.752Z,57.03
2019-03-29T03:04:58.209Z,52.87
2019-03-29T03:07:29.401Z,59.03
2019-03-29T03:10:00.608Z,55.30
2019-03-29T03:12:31.682Z,67.93
2019-03-29T03:15:02.812Z,94.47
2019-03-29T03:17:34.029Z,115.50
2019-03-29T03:20:06.609Z,102.07
2019-03-29T03:22:37.724Z,87.40
2019-03-29T03:25:09.920Z,101.20
2019-03-29T03:27:41.109Z,98.63
2019-03-29T03:30:13.573Z,65.17
2019-03-29T03:32:44.970Z,64.63
2019-03-29T03:35:16.657Z,52.60
2019-03-29T03:37:47.751Z,60.07
2019-03-29T03:40:19.219Z,58.97
2019-03-29T03:42:50.601Z,65.67
2019-03-29T03:45:21.829Z,67.87
2019-03-29T03:47:53.049Z,64.30
2019-03-29T03:50:43.887Z,66.40
2019-03-29T03:53:15.230Z,76.47
2019-03-29T03:55:47.347Z,75.47
2019-03-29T03:58:20.861Z,72.77
2019-03-29T04:00:56.847Z,68.77
2019-03-29T04:03:28.579Z,75.97
2019-03-29T04:06:00.135Z,67.77
2019-03-29T04:08:31.418Z,72.70
2019-03-29T04:11:02.790Z,78.97
2019-03-29T04:13:34.168Z,72.10
2019-03-29T04:16:06.125Z,75.43
2019-03-29T04:18:37.363Z,68.77
2019-03-29T04:21:08.798Z,72.10
2019-03-29T04:23:39.964Z,77.23
2019-03-29T04:26:12.111Z,78.00
2019-03-29T04:28:43.656Z,80.40
2019-03-29T04:31:14.909Z,86.00
2019-03-29T04:33:46.195Z,91.90
2019-03-29T04:36:17.403Z,76.03
2019-03-29T04:38:48.733Z,78.23
2019-03-29T04:41:20.066Z,93.13
2019-03-29T04:43:51.439Z,96.30
2019-03-29T04:46:22.931Z,83.60
2019-03-29T04:48:54.415Z,87.93
2019-03-29T04:51:26.459Z,107.23
2019-03-29T04:53:57.853Z,116.37
2019-03-29T04:56:29.295Z,122.00
2019-03-29T04:59:00.520Z,113.47
2019-03-29T05:01:31.915Z,96.17
2019-03-29T05:04:03.258Z,88.23
2019-03-29T05:06:34.414Z,107.33
2019-03-29T05:09:07.656Z,120.33
2019-03-29T05:11:39.194Z,116.90
2019-03-29T05:14:10.605Z,105.30
2019-03-29T05:16:41.959Z,102.70
2019-03-29T05:19:13.445Z,86.87
2019-03-29T05:21:44.852Z,91.13
2019-03-29T05:24:16.237Z,95.03
2019-03-29T05:26:47.674Z,103.23
2019-03-29T05:29:19.173Z,80.53
2019-03-29T05:31:53.750Z,83.57
2019-03-29T05:34:25.260Z,78.70
2019-03-29T05:37:00.960Z,65.33
2019-03-29T05:39:38.430Z,63.63
2019-03-29T05:42:12.584Z,62.53
2019-03-29T05:44:44.022Z,63.43
2019-03-29T05:47:15.671Z,86.63
2019-03-29T05:49:47.066Z,78.70
2019-03-29T05:52:18.422Z,88.23
2019-03-29T05:54:50.075Z,63.63
2019-03-29T05:57:21.323Z,69.80
2019-03-29T05:59:52.749Z,70.67
2019-03-29T06:02:24.054Z,73.97
2019-03-29T06:04:55.430Z,62.83
2019-03-29T06:07:26.573Z,59.00
2019-03-29T06:09:57.768Z,56.97
2019-03-29T06:12:29.147Z,62.37
2019-03-29T06:15:01.019Z,57.67
2019-03-29T06:17:32.194Z,62.73
2019-03-29T06:20:03.493Z,60.23
2019-03-29T06:22:34.839Z,61.60
2019-03-29T06:25:11.533Z,54.27
2019-03-29T06:27:42.944Z,59.43
2019-03-29T06:30:16.925Z,54.93
2019-03-29T06:32:48.180Z,55.00
2019-03-29T06:35:19.361Z,51.20
2019-03-29T06:37:50.941Z,52.50
2019-03-29T06:40:27.433Z,52.37
2019-03-29T06:42:58.609Z,48.63
2019-03-29T06:45:30.020Z,49.07
2019-03-29T06:48:01.299Z,46.47
2019-03-29T06:50:32.646Z,48.80
2019-03-29T06:53:04.045Z,50.13
2019-03-29T06:55:35.864Z,40.70
2019-03-29T06:58:07.162Z,34.07
2019-03-29T07:00:38.535Z,26.83
2019-03-29T07:03:09.994Z,24.43
2019-03-29T07:05:41.206Z,26.87
2019-03-29T07:08:12.539Z,27.63
2019-03-29T07:10:43.819Z,25.90
2019-03-29T07:13:15.167Z,24.47
2019-03-29T07:15:46.401Z,20.60
2019-03-29T07:18:18.070Z,19.80
2019-03-29T07:20:49.359Z,17.37
2019-03-29T07:23:20.614Z,17.07
2019-03-29T07:25:52.435Z,12.67
2019-03-29T07:28:23.623Z,12.03
2019-03-29T07:30:54.947Z,12.57
2019-03-29T07:33:26.263Z,9.27
2019-03-29T07:35:57.549Z,10.57
2019-03-29T07:38:28.731Z,9.10
2019-03-29T07:41:02.071Z,9.17
2019-03-29T07:43:33.306Z,8.73
2019-03-29T07:46:04.474Z,8.20
2019-03-29T07:48:35.709Z,9.37
2019-03-29T07:51:06.929Z,9.77
2019-03-29T07:53:38.123Z,9.97
2019-03-29T07:56:09.333Z,11.03
2019-03-29T07:58:40.711Z,10.93
2019-03-29T08:01:11.948Z,10.60
2019-03-29T08:03:43.473Z,9.40
2019-03-29T08:06:15.241Z,8.43
2019-03-29T08:08:46.479Z,9.10
2019-03-29T08:11:26.068Z,13.20
2019-03-29T08:13:50.632Z,10.63
2019-03-29T08:16:22.230Z,10.87
2019-03-29T08:18:53.527Z,11.43
2019-03-29T08:21:25.156Z,10.00
2019-03-29T08:23:56.484Z,10.13
2019-03-29T08:26:27.698Z,9.23
2019-03-29T08:28:58.862Z,11.70
2019-03-29T08:31:30.079Z,11.00
2019-03-29T08:34:01.284Z,11.23
2019-03-29T08:36:32.596Z,14.70
2019-03-29T08:39:05.068Z,13.93
2019-03-29T08:41:36.518Z,15.07
2019-03-29T08:44:07.791Z,14.03
2019-03-29T08:46:39.009Z,16.37
2019-03-29T08:49:10.400Z,14.40
2019-03-29T08:51:41.714Z,13.00
2019-03-29T08:54:13.134Z,14.53
2019-03-29T08:56:44.525Z,18.10
2019-03-29T08:59:17.500Z,14.50
2019-03-29T09:01:48.715Z,13.70
2019-03-29T09:04:21.745Z,15.50
2019-03-29T09:06:54.115Z,17.07
2019-03-29T09:09:25.826Z,14.40
2019-03-29T09:11:57.248Z,22.83
2019-03-29T09:14:31.263Z,16.73
2019-03-29T09:17:01.619Z,12.43
2019-03-29T09:19:32.828Z,13.63
2019-03-29T09:22:04.153Z,13.33
2019-03-29T09:24:35.534Z,13.50
2019-03-29T09:27:06.932Z,14.73
2019-03-29T09:29:38.305Z,17.20
2019-03-29T09:32:09.755Z,20.23
2019-03-29T09:34:41.003Z,13.87
2019-03-29T09:37:12.285Z,15.23
2019-03-29T09:39:44.174Z,17.37
2019-03-29T09:42:28.146Z,15.53
2019-03-29T09:44:48.485Z,15.93
2019-03-29T09:47:19.609Z,17.37
2019-03-29T09:49:50.839Z,17.17
2019-03-29T09:52:22.076Z,21.27
2019-03-29T09:54:54.188Z,19.03
2019-03-29T09:57:36.811Z,24.47
2019-03-29T09:59:58.470Z,16.10
2019-03-29T10:02:29.599Z,16.70
2019-03-29T10:05:02.896Z,16.60
2019-03-29T10:07:34.151Z,15.87
2019-03-29T10:10:06.551Z,14.73
2019-03-29T10:12:43.860Z,13.27
2019-03-29T10:15:11.482Z,14.73
2019-03-29T10:17:42.794Z,10.77
2019-03-29T10:20:14.195Z,16.37
2019-03-29T10:22:45.475Z,16.17
2019-03-29T10:25:19.779Z,17.00
2019-03-29T10:27:49.802Z,17.70
2019-03-29T10:30:41.534Z,11.70
2019-03-29T10:33:12.772Z,13.63
2019-03-29T10:35:52.158Z,11.60
2019-03-29T10:38:18.456Z,9.20
2019-03-29T10:40:50.745Z,13.73
2019-03-29T10:43:22.043Z,11.87
2019-03-29T10:45:53.210Z,11.17
2019-03-29T10:48:24.414Z,9.47
2019-03-29T10:50:55.917Z,9.93
2019-03-29T10:53:28.693Z,7.73
2019-03-29T10:56:00.448Z,10.33
2019-03-29T10:58:31.611Z,11.97
2019-03-29T11:01:03.080Z,9.60
2019-03-29T11:03:34.446Z,8.93
2019-03-29T11:06:05.736Z,10.10
2019-03-29T11:08:36.990Z,8.93
2019-03-29T11:11:08.176Z,18.10
2019-03-29T11:13:41.195Z,9.57
2019-03-29T11:16:12.331Z,22.07
2019-03-29T11:18:45.802Z,10.07
2019-03-29T11:21:16.777Z,7.53
2019-03-29T11:23:48.089Z,7.03
2019-03-29T11:26:19.930Z,7.20
2019-03-29T11:28:51.211Z,10.27
2019-03-29T11:31:25.349Z,56.13
2019-03-29T11:33:55.676Z,10.27
2019-03-29T11:36:27.088Z,8.67
2019-03-29T11:38:58.442Z,30.17
2019-03-29T11:41:31.594Z,12.00
2019-03-29T11:44:02.829Z,30.13
2019-03-29T11:46:34.014Z,48.87
2019-03-29T11:49:05.484Z,13.30
2019-03-29T11:51:36.758Z,18.67
2019-03-29T11:54:08.118Z,17.90
2019-03-29T11:56:39.389Z,9.37
2019-03-29T11:59:10.768Z,118.10
2019-03-29T12:01:45.547Z,9.30
2019-03-29T12:04:16.888Z,12.27
2019-03-29T12:06:48.305Z,8.53
2019-03-29T12:09:19.568Z,14.10
2019-03-29T12:11:50.828Z,19.37
2019-03-29T12:14:22.019Z,11.83
2019-03-29T12:16:53.359Z,14.33
2019-03-29T12:19:24.479Z,26.30
2019-03-29T12:21:55.672Z,10.33
2019-03-29T12:24:26.831Z,77.10
2019-03-29T12:26:57.925Z,46.57
2019-03-29T12:29:29.170Z,16.67
2019-03-29T12:32:00.474Z,8.57
2019-03-29T12:34:31.668Z,26.93
2019-03-29T12:37:03.029Z,12.73
2019-03-29T12:39:34.235Z,15.90
2019-03-29T12:42:06.128Z,11.70
2019-03-29T12:44:37.544Z,11.00
2019-03-29T12:47:08.786Z,26.57
2019-03-29T12:49:40.029Z,13.03
2019-03-29T12:52:11.554Z,17.47
2019-03-29T12:54:42.809Z,12.83
2019-03-29T12:57:14.004Z,11.07
2019-03-29T12:59:46.084Z,11.93
2019-03-29T13:02:19.647Z,14.53
2019-03-29T13:04:50.888Z,11.07
2019-03-29T13:07:22.257Z,46.20
2019-03-29T13:09:53.608Z,30.17
2019-03-29T13:12:24.904Z,17.00
2019-03-29T13:14:56.144Z,29.00
2019-03-29T13:17:28.638Z,44.80
2019-03-29T13:19:59.998Z,16.87
2019-03-29T13:22:34.598Z,28.00
2019-03-29T13:25:07.359Z,25.37
2019-03-29T13:27:37.596Z,13.73
2019-03-29T13:30:10.624Z,18.90
2019-03-29T13:32:41.943Z,23.13
2019-03-29T13:35:13.385Z,26.87
2019-03-29T13:37:44.626Z,16.77
2019-03-29T13:40:16.198Z,21.30
2019-03-29T13:42:47.543Z,18.23
2019-03-29T13:45:27.676Z,27.93
2019-03-29T13:47:56.144Z,19.53
2019-03-29T13:50:27.574Z,28.87
2019-03-29T13:52:58.863Z,20.87
2019-03-29T13:55:30.101Z,29.67
2019-03-29T13:58:01.421Z,21.40
2019-03-29T14:00:32.784Z,18.67
2019-03-29T14:03:04.056Z,25.17
2019-03-29T14:05:35.348Z,17.90
2019-03-29T14:08:06.635Z,19.43
2019-03-29T14:10:37.963Z,22.40
2019-03-29T14:13:09.378Z,14.87
2019-03-29T14:15:40.532Z,22.03
2019-03-29T14:18:11.844Z,21.07
2019-03-29T14:20:43.159Z,17.23
2019-03-29T14:23:14.459Z,16.37
2019-03-29T14:25:45.674Z,14.47
2019-03-29T14:28:16.988Z,13.73
2019-03-29T14:30:48.303Z,15.33
2019-03-29T14:33:19.697Z,16.50
2019-03-29T14:35:51.618Z,17.47
2019-03-29T14:38:23.159Z,15.90
2019-03-29T14:40:54.562Z,16.13
2019-03-29T14:43:25.919Z,12.83
2019-03-29T14:45:57.254Z,15.77
2019-03-29T14:48:28.559Z,14.07
2019-03-29T14:50:59.770Z,13.80
2019-03-29T14:53:31.020Z,11.50
2019-03-29T14:56:02.275Z,11.20
2019-03-29T14:58:33.573Z,10.77
2019-03-29T15:01:04.949Z,12.30
2019-03-29T15:03:36.227Z,15.77
2019-03-29T15:06:07.407Z,12.03
2019-03-29T15:08:38.779Z,15.03
2019-03-29T15:11:21.563Z,11.27
2019-03-29T15:13:43.034Z,11.20
2019-03-29T15:16:14.284Z,14.07
2019-03-29T15:18:45.734Z,11.23
2019-03-29T15:21:17.083Z,11.57
2019-03-29T15:23:48.208Z,11.20
2019-03-29T15:26:19.505Z,13.90
2019-03-29T15:28:50.769Z,10.67
2019-03-29T15:31:22.039Z,12.03
2019-03-29T15:33:55.615Z,12.07
2019-03-29T15:36:26.283Z,11.60
2019-03-29T15:38:57.864Z,12.50
2019-03-29T15:41:29.187Z,12.53
2019-03-29T15:44:00.493Z,13.40
2019-03-29T15:46:31.869Z,12.00
2019-03-29T15:49:03.013Z,12.57
2019-03-29T15:51:34.434Z,13.07
2019-03-29T15:54:05.687Z,12.77
2019-03-29T15:56:36.904Z,12.03
2019-03-29T15:59:08.094Z,12.87
2019-03-29T16:01:39.375Z,12.70
2019-03-29T16:04:10.569Z,12.83
2019-03-29T16:06:42.079Z,14.40
2019-03-29T16:09:13.409Z,11.20
2019-03-29T16:11:44.632Z,10.70
2019-03-29T16:14:15.984Z,11.67
2019-03-29T16:16:47.337Z,11.53
2019-03-29T16:19:18.669Z,14.50
2019-03-29T16:21:49.926Z,13.73
2019-03-29T16:24:21.127Z,15.07
2019-03-29T16:26:52.528Z,16.37
2019-03-29T16:29:23.775Z,15.80
2019-03-29T16:31:55.021Z,20.07
2019-03-29T16:34:26.248Z,15.63
2019-03-29T16:36:57.456Z,15.50
2019-03-29T16:39:28.740Z,15.43
2019-03-29T16:42:00.028Z,15.10
2019-03-29T16:44:31.344Z,14.83
2019-03-29T16:47:02.585Z,15.50
2019-03-29T16:49:33.939Z,19.07
2019-03-29T16:52:05.245Z,17.10
2019-03-29T16:54:36.574Z,18.13
2019-03-29T16:57:07.749Z,17.40
2019-03-29T16:59:38.963Z,17.53
2019-03-29T17:02:10.346Z,17.33
2019-03-29T17:04:41.491Z,19.17
2019-03-29T17:07:12.634Z,20.93
2019-03-29T17:09:43.952Z,40.70
2019-03-29T17:12:15.258Z,42.50
2019-03-29T17:14:46.579Z,32.67
2019-03-29T17:17:19.945Z,23.47
2019-03-29T17:19:51.309Z,20.20
2019-03-29T17:22:23.765Z,20.40
2019-03-29T17:24:57.192Z,17.07
2019-03-29T17:27:28.108Z,19.47
2019-03-29T17:29:59.310Z,27.07
2019-03-29T17:32:30.718Z,34.43
2019-03-29T17:35:01.841Z,50.13
2019-03-29T17:37:33.124Z,45.30
2019-03-29T17:40:05.109Z,48.17
2019-03-29T17:42:36.393Z,42.70
2019-03-29T17:45:08.292Z,46.23
2019-03-29T17:47:39.527Z,35.07
2019-03-29T17:50:10.997Z,25.77
2019-03-29T17:52:42.574Z,48.43
2019-03-29T17:55:17.294Z,63.53
2019-03-29T17:57:48.801Z,39.40
2019-03-29T18:00:22.938Z,29.57
2019-03-29T18:02:54.155Z,24.03
2019-03-29T18:05:25.396Z,24.90
2019-03-29T18:07:58.334Z,23.57
2019-03-29T18:10:29.524Z,28.73
2019-03-29T18:13:02.310Z,30.40
2019-03-29T18:15:33.624Z,34.83
2019-03-29T18:18:06.004Z,43.40
2019-03-29T18:20:37.467Z,38.40
2019-03-29T18:23:09.924Z,38.20
2019-03-29T18:25:42.709Z,37.60
2019-03-29T18:28:18.718Z,34.90
2019-03-29T18:30:50.265Z,32.10
2019-03-29T18:33:24.358Z,29.13
2019-03-29T18:35:56.180Z,31.17
2019-03-29T18:38:29.878Z,30.57
2019-03-29T18:41:01.153Z,30.93
2019-03-29T18:43:32.484Z,37.00
2019-03-29T18:46:04.420Z,42.03
2019-03-29T18:48:35.829Z,40.03
2019-03-29T18:51:09.644Z,43.43
2019-03-29T18:53:41.094Z,42.13
2019-03-29T18:56:16.808Z,35.03
2019-03-29T18:58:49.083Z,30.90
2019-03-29T19:01:20.378Z,29.50
2019-03-29T19:03:52.039Z,30.47
2019-03-29T19:06:25.306Z,28.70
2019-03-29T19:08:59.888Z,26.30
2019-03-29T19:11:34.535Z,26.30
2019-03-29T19:14:08.329Z,31.83
2019-03-29T19:16:42.731Z,31.07
2019-03-29T19:19:14.269Z,30.73
2019-03-29T19:21:54.451Z,29.83
2019-03-29T19:24:27.897Z,34.37
2019-03-29T19:27:02.872Z,32.53
2019-03-29T19:29:34.984Z,34.57
2019-03-29T19:32:15.069Z,30.40
2019-03-29T19:34:48.506Z,32.67
2019-03-29T19:37:19.919Z,34.07
2019-03-29T19:39:52.463Z,35.10
2019-03-29T19:42:23.720Z,44.97
2019-03-29T19:44:58.579Z,45.80
2019-03-29T19:47:35.610Z,50.20
2019-03-29T19:50:07.416Z,57.43
2019-03-29T19:52:42.290Z,60.57
2019-03-29T19:55:16.122Z,89.23
2019-03-29T19:57:53.940Z,82.27
2019-03-29T20:00:53.006Z,56.10
2019-03-29T20:03:24.330Z,46.43
2019-03-29T20:06:02.105Z,39.57
2019-03-29T20:08:40.579Z,34.47
2019-03-29T20:11:12.354Z,43.00
2019-03-29T20:13:47.088Z,41.17
2019-03-29T20:16:18.725Z,39.30
2019-03-29T20:18:57.382Z,35.00
2019-03-29T20:21:34.055Z,35.37
2019-03-29T20:24:05.487Z,44.63
2019-03-29T20:26:38.140Z,50.23
2019-03-29T20:29:12.207Z,52.97
2019-03-29T20:31:44.758Z,62.07
2019-03-29T20:34:17.678Z,65.80
2019-03-29T20:36:50.611Z,54.83
2019-03-29T20:39:22.939Z,50.83
2019-03-29T20:41:55.458Z,39.90
2019-03-29T20:44:33.925Z,44.00
2019-03-29T20:47:08.685Z,56.53
2019-03-29T20:49:41.444Z,57.13
2019-03-29T20:52:16.421Z,56.43
2019-03-29T20:54:48.927Z,54.33
2019-03-29T20:57:21.635Z,52.10
2019-03-29T20:59:55.043Z,51.17
2019-03-29T21:02:26.564Z,47.00
2019-03-29T21:04:57.866Z,48.37
2019-03-29T21:07:29.193Z,43.67
2019-03-29T21:10:06.876Z,41.40
2019-03-29T21:12:38.338Z,46.53
2019-03-29T21:15:11.569Z,48.97
2019-03-29T21:17:56.036Z,49.30
2019-03-29T21:20:15.998Z,51.83
2019-03-29T21:22:47.398Z,57.20
2019-03-29T21:25:18.695Z,66.87
2019-03-29T21:27:49.998Z,64.97
2019-03-29T21:30:21.819Z,61.13
2019-03-29T21:32:54.063Z,55.47
2019-03-29T21:35:25.330Z,47.63
2019-03-29T21:37:56.725Z,50.50
2019-03-29T21:40:28.134Z,48.10
2019-03-29T21:43:01.820Z,45.53
2019-03-29T21:45:32.316Z,49.87
2019-03-29T21:48:26.931Z,53.23
2019-03-29T21:50:36.460Z,52.63
2019-03-29T21:53:08.134Z,49.60
2019-03-29T21:55:39.238Z,59.30
2019-03-29T21:58:10.539Z,60.33
2019-03-29T22:00:41.668Z,55.97
2019-03-29T22:03:13.097Z,45.43
2019-03-29T22:05:44.763Z,49.33
2019-03-29T22:08:17.960Z,53.27
2019-03-29T22:10:49.209Z,52.90
2019-03-29T22:13:20.441Z,48.43
2019-03-29T22:15:51.643Z,50.10
2019-03-29T22:18:22.780Z,50.53
2019-03-29T22:20:53.862Z,51.17
2019-03-29T22:23:25.044Z,44.73
2019-03-29T22:25:57.875Z,45.77
2019-03-29T22:28:29.334Z,43.73
2019-03-29T22:31:00.713Z,39.17
2019-03-29T22:33:31.978Z,38.07
2019-03-29T22:36:03.219Z,39.13
2019-03-29T22:38:34.395Z,39.37
2019-03-29T22:41:05.636Z,36.57
2019-03-29T22:43:36.745Z,39.83
2019-03-29T22:46:08.091Z,56.70
2019-03-29T22:48:51.699Z,51.40
2019-03-29T22:51:12.640Z,55.57
2019-03-29T22:53:43.911Z,51.17
2019-03-29T22:56:15.246Z,41.80
2019-03-29T22:58:46.714Z,47.37
2019-03-29T23:01:18.468Z,44.13
2019-03-29T23:03:49.800Z,42.23
2019-03-29T23:06:21.043Z,46.33
2019-03-29T23:08:52.145Z,44.07
2019-03-29T23:11:23.352Z,51.30
2019-03-29T23:13:54.617Z,57.57
2019-03-29T23:16:25.762Z,46.20
2019-03-29T23:19:06.353Z,56.30
2019-03-29T23:21:29.800Z,53.00
2019-03-29T23:24:00.940Z,56.23
2019-03-29T23:26:32.036Z,67.33
2019-03-29T23:29:03.243Z,62.57
2019-03-29T23:31:34.346Z,75.53
2019-03-29T23:34:05.677Z,99.53
2019-03-29T23:36:36.852Z,102.80
2019-03-29T23:39:09.036Z,108.73
2019-03-29T23:41:40.141Z,94.67
2019-03-29T23:44:11.346Z,97.93
2019-03-29T23:46:42.613Z,78.60
2019-03-29T23:49:21.069Z,82.00
2019-03-29T23:51:47.106Z,73.43
2019-03-29T23:54:18.311Z,72.93
2019-03-29T23:56:49.551Z,97.33
2019-03-29T23:59:20.652Z,132.50
